createdAt,value
2022-11-22T00:00:25.172Z,20.17
2022-11-22T00:02:52.222Z,20.63
2022-11-22T00:05:19.083Z,20.37
2022-11-22T00:07:45.951Z,19.50
2022-11-22T00:10:14.995Z,20.50
2022-11-22T00:12:41.772Z,19.53
2022-11-22T00:15:09.155Z,19.87
2022-11-22T00:17:36.086Z,18.83
2022-11-22T00:20:03.533Z,18.37
2022-11-22T00:22:32.115Z,20.43
2022-11-22T00:24:58.768Z,18.87
2022-11-22T00:27:25.511Z,20.00
2022-11-22T00:29:52.136Z,18.70
2022-11-22T00:32:18.800Z,19.33
2022-11-22T00:34:45.448Z,18.90
2022-11-22T00:37:12.313Z,18.97
2022-11-22T00:39:39.118Z,19.00
2022-11-22T00:42:05.895Z,18.80
2022-11-22T00:44:32.531Z,20.27
2022-11-22T00:46:59.239Z,18.83
2022-11-22T00:49:25.879Z,18.63
2022-11-22T00:51:52.556Z,18.63
2022-11-22T00:54:19.213Z,17.47
2022-11-22T00:56:47.256Z,18.07
2022-11-22T00:59:13.978Z,18.20
2022-11-22T01:01:40.718Z,17.77
2022-11-22T01:04:07.496Z,17.20
2022-11-22T01:06:34.178Z,16.93
2022-11-22T01:09:00.895Z,17.17
2022-11-22T01:11:27.612Z,18.47
2022-11-22T01:13:54.304Z,17.40
2022-11-22T01:16:21.156Z,16.53
2022-11-22T01:18:47.884Z,16.87
2022-11-22T01:21:14.692Z,17.57
2022-11-22T01:23:41.469Z,15.80
2022-11-22T01:26:09.114Z,18.20
2022-11-22T01:28:36.505Z,17.47
2022-11-22T01:31:03.298Z,16.77
2022-11-22T01:33:29.979Z,17.30
2022-11-22T01:35:58.214Z,17.03
2022-11-22T01:38:25.165Z,17.60
2022-11-22T01:40:53.429Z,18.17
2022-11-22T01:43:22.875Z,16.93
2022-11-22T01:45:55.462Z,16.80
2022-11-22T01:48:49.826Z,17.87
2022-11-22T01:51:47.914Z,16.52
2022-11-22T01:54:19.059Z,16.83
2022-11-22T01:56:50.414Z,17.87
2022-11-22T01:59:22.513Z,16.27
2022-11-22T02:01:49.472Z,16.97
2022-11-22T02:04:18.625Z,16.97
2022-11-22T02:07:02.613Z,17.20
2022-11-22T02:09:29.739Z,16.90
2022-11-22T02:12:00.296Z,16.53
2022-11-22T02:14:28.434Z,17.10
2022-11-22T02:16:55.170Z,16.40
2022-11-22T02:19:47.083Z,17.53
2022-11-22T02:22:34.785Z,16.27
2022-11-22T02:25:32.422Z,16.93
2022-11-22T02:27:59.370Z,18.03
2022-11-22T02:30:26.047Z,17.23
2022-11-22T02:32:52.725Z,16.20
2022-11-22T02:35:24.798Z,16.83
2022-11-22T02:38:14.133Z,17.13
2022-11-22T02:40:48.106Z,16.23
2022-11-22T02:45:43.771Z,16.10
2022-11-22T02:48:16.452Z,16.80
2022-11-22T02:50:44.069Z,17.17
2022-11-22T02:53:11.968Z,17.10
2022-11-22T02:55:39.112Z,17.33
2022-11-22T02:58:06.296Z,17.13
2022-11-22T03:00:34.617Z,19.00
2022-11-22T03:03:01.565Z,18.97
2022-11-22T03:05:28.325Z,17.63
2022-11-22T03:07:55.116Z,18.37
2022-11-22T03:10:21.836Z,18.13
2022-11-22T03:12:48.533Z,19.17
2022-11-22T03:15:15.200Z,19.90
2022-11-22T03:17:41.845Z,18.73
2022-11-22T03:20:08.981Z,20.77
2022-11-22T03:22:35.905Z,20.33
2022-11-22T03:25:02.578Z,20.43
2022-11-22T03:27:29.204Z,21.47
2022-11-22T03:29:55.936Z,21.57
2022-11-22T03:32:22.672Z,21.07
2022-11-22T03:34:49.317Z,21.90
2022-11-22T03:37:15.899Z,21.43
2022-11-22T03:39:42.524Z,20.47
2022-11-22T03:42:09.172Z,21.17
2022-11-22T03:44:35.825Z,20.50
2022-11-22T03:47:02.515Z,21.93
2022-11-22T03:49:29.372Z,21.17
2022-11-22T03:51:56.304Z,21.93
2022-11-22T03:54:23.005Z,22.00
2022-11-22T03:56:49.717Z,22.57
2022-11-22T03:59:16.397Z,21.43
2022-11-22T04:01:43.122Z,20.67
2022-11-22T04:04:11.251Z,22.17
2022-11-22T04:06:38.495Z,21.77
2022-11-22T04:09:05.384Z,23.27
2022-11-22T04:11:32.048Z,23.70
2022-11-22T04:14:17.104Z,22.13
2022-11-22T04:16:43.790Z,21.87
2022-11-22T04:19:10.486Z,22.27
2022-11-22T04:21:37.190Z,23.53
2022-11-22T04:24:28.003Z,23.03
2022-11-22T04:26:55.109Z,23.53
2022-11-22T04:29:22.510Z,24.23
2022-11-22T04:32:08.578Z,24.47
2022-11-22T04:34:35.832Z,24.67
2022-11-22T04:37:03.213Z,25.00
2022-11-22T04:39:30.169Z,24.63
2022-11-22T04:42:16.396Z,24.97
2022-11-22T04:44:43.980Z,24.23
2022-11-22T04:47:12.518Z,24.43
2022-11-22T04:49:39.322Z,23.20
2022-11-22T04:52:24.504Z,24.13
2022-11-22T04:54:51.159Z,23.97
2022-11-22T04:57:17.811Z,22.73
2022-11-22T04:59:44.520Z,23.80
2022-11-22T05:02:11.180Z,23.40
2022-11-22T05:04:37.818Z,25.30
2022-11-22T05:07:04.915Z,23.63
2022-11-22T05:09:31.807Z,24.83
2022-11-22T05:11:58.877Z,24.40
2022-11-22T05:14:25.539Z,25.97
2022-11-22T05:16:52.165Z,24.37
2022-11-22T05:19:18.830Z,24.33
2022-11-22T05:21:45.490Z,24.43
2022-11-22T05:24:12.235Z,26.30
2022-11-22T05:26:38.893Z,26.13
2022-11-22T05:29:10.348Z,26.03
2022-11-22T05:31:38.978Z,26.27
2022-11-22T05:34:05.827Z,28.17
2022-11-22T05:36:34.182Z,25.70
2022-11-22T05:39:01.348Z,24.23
2022-11-22T05:41:28.136Z,25.73
2022-11-22T05:43:58.193Z,23.87
2022-11-22T05:46:27.944Z,23.27
2022-11-22T05:48:56.715Z,24.73
2022-11-22T05:51:32.264Z,24.87
2022-11-22T05:54:00.516Z,24.13
2022-11-22T05:56:27.212Z,23.27
2022-11-22T05:58:53.873Z,23.80
2022-11-22T06:01:23.054Z,25.53
2022-11-22T06:03:50.521Z,26.00
2022-11-22T06:06:17.628Z,24.43
2022-11-22T06:08:47.514Z,26.10
2022-11-22T06:11:20.205Z,24.93
2022-11-22T06:13:49.063Z,23.17
2022-11-22T06:16:16.394Z,23.53
2022-11-22T06:18:43.226Z,25.20
2022-11-22T06:21:15.783Z,23.43
2022-11-22T06:23:43.369Z,24.33
2022-11-22T06:26:18.076Z,24.40
2022-11-22T06:28:46.233Z,22.67
2022-11-22T06:31:21.442Z,24.10
2022-11-22T06:33:48.630Z,25.67
2022-11-22T06:36:17.847Z,27.27
2022-11-22T06:38:45.471Z,27.13
2022-11-22T06:41:14.679Z,24.35
2022-11-22T06:43:48.022Z,24.70
2022-11-22T06:46:17.107Z,25.75
2022-11-22T06:48:43.860Z,24.45
2022-11-22T06:51:13.957Z,25.85
2022-11-22T06:53:49.216Z,26.30
2022-11-22T06:56:19.023Z,25.83
2022-11-22T06:58:46.590Z,29.13
2022-11-22T07:01:16.633Z,31.27
2022-11-22T07:03:43.682Z,28.83
2022-11-22T07:06:13.377Z,30.73
2022-11-22T07:08:40.675Z,33.87
2022-11-22T07:11:09.784Z,26.60
2022-11-22T07:13:37.079Z,26.27
2022-11-22T07:16:06.148Z,27.63
2022-11-22T07:18:33.408Z,25.37
2022-11-22T07:21:21.478Z,25.13
2022-11-22T07:23:51.291Z,24.13
2022-11-22T07:26:19.549Z,24.90
2022-11-22T07:28:46.619Z,25.30
2022-11-22T07:31:15.180Z,25.57
2022-11-22T07:33:43.173Z,25.73
2022-11-22T07:36:15.976Z,25.60
2022-11-22T07:38:42.969Z,25.30
2022-11-22T07:41:10.245Z,25.93
2022-11-22T07:43:37.302Z,24.97
2022-11-22T07:46:20.088Z,26.70
2022-11-22T07:48:49.411Z,25.53
2022-11-22T07:51:16.965Z,24.52
2022-11-22T07:53:43.638Z,24.80
2022-11-22T07:56:10.383Z,25.15
2022-11-22T07:58:37.573Z,27.95
2022-11-22T08:01:09.856Z,26.23
2022-11-22T08:03:36.963Z,25.48
2022-11-22T08:06:05.424Z,25.58
2022-11-22T08:08:32.844Z,26.50
2022-11-22T08:10:59.600Z,26.08
2022-11-22T08:13:26.555Z,26.25
2022-11-22T08:15:54.828Z,25.80
2022-11-22T08:18:22.643Z,26.52
2022-11-22T08:20:49.276Z,27.52
2022-11-22T08:23:15.975Z,26.15
2022-11-22T08:25:42.623Z,27.42
2022-11-22T08:28:09.323Z,33.40
2022-11-22T08:30:35.947Z,33.03
2022-11-22T08:33:02.640Z,28.50
2022-11-22T08:35:29.314Z,33.63
2022-11-22T08:37:58.962Z,36.42
2022-11-22T08:40:25.690Z,32.63
2022-11-22T08:42:56.474Z,29.30
2022-11-22T08:45:23.165Z,33.10
2022-11-22T08:47:49.951Z,30.15
2022-11-22T08:50:18.217Z,30.48
2022-11-22T08:52:45.104Z,29.88
2022-11-22T08:55:11.776Z,32.78
2022-11-22T08:57:38.451Z,33.92
2022-11-22T09:00:06.697Z,32.13
2022-11-22T09:02:33.392Z,30.58
2022-11-22T09:05:00.100Z,31.25
2022-11-22T09:10:14.936Z,30.73
2022-11-22T09:12:45.721Z,31.95
2022-11-22T09:15:12.928Z,32.40
2022-11-22T09:17:39.700Z,32.90
2022-11-22T09:20:06.915Z,39.33
2022-11-22T09:22:33.542Z,33.25
2022-11-22T09:25:00.162Z,31.10
2022-11-22T09:27:26.876Z,34.65
2022-11-22T09:29:55.853Z,30.90
2022-11-22T09:32:22.567Z,34.80
2022-11-22T09:34:49.478Z,37.47
2022-11-22T09:37:18.572Z,30.75
2022-11-22T09:39:48.442Z,30.27
2022-11-22T09:42:21.232Z,31.98
2022-11-22T09:44:56.881Z,29.25
2022-11-22T09:47:53.282Z,30.65
2022-11-22T09:51:02.310Z,28.48
2022-11-22T09:53:54.113Z,30.48
2022-11-22T09:56:25.204Z,31.58
2022-11-22T09:59:28.561Z,35.25
2022-11-22T10:02:03.442Z,34.70
2022-11-22T10:04:44.006Z,29.85
2022-11-22T10:07:29.732Z,28.40
2022-11-22T10:10:05.556Z,31.60
2022-11-22T10:12:36.535Z,30.80
2022-11-22T10:15:34.028Z,29.20
2022-11-22T10:18:01.935Z,30.50
2022-11-22T10:20:32.207Z,32.95
2022-11-22T10:22:59.638Z,30.17
2022-11-22T10:25:48.175Z,33.47
2022-11-22T10:28:17.584Z,29.27
2022-11-22T10:30:55.095Z,28.98
2022-11-22T10:33:29.503Z,28.80
2022-11-22T10:36:04.440Z,28.13
2022-11-22T10:38:46.497Z,29.52
2022-11-22T10:41:31.173Z,27.88
2022-11-22T10:44:09.657Z,28.08
2022-11-22T10:47:10.531Z,28.38
2022-11-22T10:49:40.312Z,28.10
2022-11-22T10:52:16.404Z,26.52
2022-11-22T10:55:05.417Z,28.42
2022-11-22T10:57:41.094Z,27.85
2022-11-22T11:00:25.138Z,26.67
2022-11-22T11:03:19.261Z,28.13
2022-11-22T11:06:24.359Z,37.33
2022-11-22T11:11:51.023Z,28.08
2022-11-22T11:14:37.623Z,26.75
2022-11-22T11:17:06.171Z,28.10
2022-11-22T11:19:38.586Z,27.20
2022-11-22T11:22:08.232Z,27.13
2022-11-22T11:24:38.141Z,28.33
2022-11-22T11:27:05.103Z,28.10
2022-11-22T11:29:41.508Z,26.38
2022-11-22T11:32:22.100Z,26.50
2022-11-22T11:35:04.249Z,25.55
2022-11-22T11:37:36.821Z,26.70
2022-11-22T11:40:05.091Z,27.27
2022-11-22T11:42:34.119Z,28.00
2022-11-22T11:45:25.827Z,27.48
2022-11-22T11:47:52.492Z,27.15
2022-11-22T11:50:25.344Z,29.38
2022-11-22T11:52:56.360Z,29.38
2022-11-22T11:55:23.668Z,26.50
2022-11-22T11:57:52.564Z,26.83
2022-11-22T12:00:41.344Z,25.27
2022-11-22T12:03:12.093Z,24.40
2022-11-22T12:05:38.820Z,31.35
2022-11-22T12:08:29.642Z,28.80
2022-11-22T12:11:02.845Z,29.02
2022-11-22T12:14:04.749Z,32.70
2022-11-22T12:16:37.643Z,27.85
2022-11-22T12:19:36.641Z,31.45
2022-11-22T12:22:29.217Z,26.85
2022-11-22T12:25:36.413Z,31.00
2022-11-22T12:28:17.810Z,26.02
2022-11-22T12:30:49.501Z,29.88
2022-11-22T12:33:42.119Z,26.17
2022-11-22T12:36:18.885Z,25.80
2022-11-22T12:38:47.781Z,26.45
2022-11-22T12:41:17.805Z,27.17
2022-11-22T12:44:01.106Z,25.33
2022-11-22T12:46:39.714Z,27.70
2022-11-22T12:49:29.191Z,26.70
2022-11-22T12:51:55.798Z,24.45
2022-11-22T12:54:48.238Z,28.27
2022-11-22T12:57:22.945Z,25.45
2022-11-22T13:00:04.196Z,24.95
2022-11-22T13:02:43.069Z,23.98
2022-11-22T13:05:31.806Z,24.33
2022-11-22T13:08:18.830Z,24.58
2022-11-22T13:11:19.828Z,25.65
2022-11-22T13:13:53.305Z,26.33
2022-11-22T13:16:20.091Z,24.88
2022-11-22T13:19:02.694Z,26.42
2022-11-22T13:21:53.598Z,29.67
2022-11-22T13:24:52.673Z,25.50
2022-11-22T13:27:40.990Z,25.80
2022-11-22T13:30:22.748Z,26.70
2022-11-22T13:32:52.926Z,26.08
2022-11-22T13:35:38.357Z,25.63
2022-11-22T13:38:10.129Z,25.05
2022-11-22T13:40:42.828Z,25.00
2022-11-22T13:43:21.487Z,25.58
2022-11-22T13:46:31.422Z,26.20
2022-11-22T13:49:08.499Z,25.77
2022-11-22T13:51:57.132Z,25.75
2022-11-22T13:54:33.239Z,25.27
2022-11-22T13:57:19.691Z,25.95
2022-11-22T13:59:46.481Z,25.83
2022-11-22T14:02:31.329Z,27.30
2022-11-22T14:04:59.352Z,26.00
2022-11-22T14:07:37.442Z,25.15
2022-11-22T14:10:25.382Z,25.60
2022-11-22T14:13:07.485Z,27.95
2022-11-22T14:15:46.620Z,25.20
2022-11-22T14:18:25.274Z,24.45
2022-11-22T14:21:08.084Z,29.00
2022-11-22T14:24:16.038Z,27.30
2022-11-22T14:26:59.638Z,25.48
2022-11-22T14:29:38.804Z,32.42
2022-11-22T14:32:14.254Z,29.27
2022-11-22T14:35:05.800Z,30.80
2022-11-22T14:37:32.455Z,28.63
2022-11-22T14:40:08.059Z,31.25
2022-11-22T14:42:37.781Z,28.02
2022-11-22T14:45:12.944Z,26.80
2022-11-22T14:47:53.793Z,28.70
2022-11-22T14:50:37.572Z,27.08
2022-11-22T14:53:42.621Z,28.98
2022-11-22T14:59:19.711Z,27.65
2022-11-22T15:02:18.137Z,26.23
2022-11-22T15:09:17.864Z,26.98
2022-11-22T15:09:20.507Z,30.15
2022-11-22T15:10:31.934Z,29.42
2022-11-22T15:13:28.008Z,29.75
2022-11-22T15:59:35.020Z,32.22
2022-11-22T16:02:01.878Z,33.15
2022-11-22T16:04:36.361Z,32.50
2022-11-22T16:07:06.527Z,34.47
2022-11-22T16:09:35.932Z,31.60
2022-11-22T16:12:06.159Z,30.40
2022-11-22T16:14:50.820Z,31.15
2022-11-22T16:17:22.035Z,30.20
2022-11-22T16:19:48.746Z,30.75
2022-11-22T16:22:44.850Z,29.50
2022-11-22T16:25:21.851Z,29.25
2022-11-22T16:27:49.982Z,29.75
2022-11-22T16:30:22.180Z,31.40
2022-11-22T16:32:53.683Z,30.08
2022-11-22T16:35:29.350Z,30.95
2022-11-22T16:37:56.470Z,29.83
2022-11-22T16:40:23.273Z,30.35
2022-11-22T16:42:49.919Z,31.73
2022-11-22T16:45:19.822Z,29.55
2022-11-22T16:47:54.584Z,29.95
2022-11-22T16:50:33.638Z,29.50
2022-11-22T16:53:02.894Z,30.60
2022-11-22T16:55:29.810Z,29.80
2022-11-22T16:57:56.669Z,32.08
2022-11-22T17:00:23.335Z,31.30
2022-11-22T17:02:50.016Z,31.92
2022-11-22T17:05:17.561Z,33.42
2022-11-22T17:07:44.295Z,32.72
2022-11-22T17:10:11.225Z,31.92
2022-11-22T17:12:38.101Z,30.13
2022-11-22T17:15:05.125Z,31.38
2022-11-22T17:17:31.886Z,32.97
2022-11-22T17:19:58.551Z,31.33
2022-11-22T17:22:25.388Z,30.23
2022-11-22T17:24:52.113Z,31.85
2022-11-22T17:27:18.799Z,31.48
2022-11-22T17:29:53.171Z,30.00
2022-11-22T17:32:20.239Z,30.55
2022-11-22T17:34:47.069Z,32.40
2022-11-22T17:37:14.142Z,30.83
2022-11-22T17:39:41.043Z,31.52
2022-11-22T17:42:08.013Z,29.45
2022-11-22T17:44:34.725Z,32.83
2022-11-22T17:47:01.483Z,32.28
2022-11-22T17:49:28.521Z,34.25
2022-11-22T17:51:55.475Z,32.53
2022-11-22T17:54:22.136Z,34.90
2022-11-22T17:56:48.849Z,33.20
2022-11-22T17:59:15.623Z,35.55
2022-11-22T18:01:43.178Z,33.22
2022-11-22T18:04:10.105Z,31.15
2022-11-22T18:06:37.040Z,35.50
2022-11-22T18:09:04.115Z,32.00
2022-11-22T18:11:30.808Z,31.25
2022-11-22T18:13:57.440Z,40.05
2022-11-22T18:16:28.467Z,33.45
2022-11-22T18:18:57.574Z,30.77
2022-11-22T18:21:26.132Z,31.08
2022-11-22T18:23:52.876Z,30.83
2022-11-22T18:31:54.498Z,29.65
2022-11-22T18:34:24.623Z,30.92
2022-11-22T18:36:57.580Z,32.33
2022-11-22T18:39:29.628Z,31.17
2022-11-22T18:41:56.668Z,30.48
2022-11-22T18:44:23.392Z,33.85
2022-11-22T18:46:50.082Z,33.50
2022-11-22T18:49:16.730Z,32.72
2022-11-22T18:51:43.413Z,30.27
2022-11-22T18:54:10.529Z,33.05
2022-11-22T18:56:40.542Z,31.17
2022-11-22T18:59:10.469Z,32.72
2022-11-22T19:01:37.302Z,30.48
2022-11-22T19:04:04.633Z,32.10
2022-11-22T19:06:31.510Z,32.75
2022-11-22T19:08:58.170Z,33.08
2022-11-22T19:11:25.383Z,31.17
2022-11-22T19:13:52.058Z,33.60
2022-11-22T19:16:21.738Z,32.60
2022-11-22T19:18:49.500Z,32.63
2022-11-22T19:21:21.482Z,34.25
2022-11-22T19:23:49.646Z,33.55
2022-11-22T19:26:22.454Z,32.92
2022-11-22T19:28:50.123Z,35.15
2022-11-22T19:31:19.021Z,34.60
2022-11-22T19:33:46.001Z,36.33
2022-11-22T19:36:17.502Z,32.67
2022-11-22T19:38:44.711Z,34.28
2022-11-22T19:41:13.571Z,32.25
2022-11-22T19:43:40.960Z,34.22
2022-11-22T19:46:07.653Z,31.85
2022-11-22T19:48:35.809Z,32.33
2022-11-22T19:51:10.271Z,31.95
2022-11-22T19:53:37.165Z,33.17
2022-11-22T19:56:05.390Z,32.88
2022-11-22T19:58:32.832Z,31.05
2022-11-22T20:01:06.965Z,32.42
2022-11-22T20:06:02.829Z,31.02
2022-11-22T20:08:30.735Z,31.90
2022-11-22T20:11:02.618Z,31.23
2022-11-22T20:13:29.823Z,31.55
2022-11-22T20:15:57.643Z,31.23
2022-11-22T20:18:24.316Z,35.65
2022-11-22T20:20:51.037Z,33.90
2022-11-22T20:23:17.671Z,32.75
2022-11-22T20:25:44.350Z,33.35
2022-11-22T20:28:11.046Z,35.60
2022-11-22T20:30:37.783Z,32.55
2022-11-22T20:33:04.524Z,32.90
2022-11-22T20:35:31.258Z,31.42
2022-11-22T20:37:57.911Z,33.67
2022-11-22T20:40:24.600Z,32.20
2022-11-22T20:42:51.254Z,31.02
2022-11-22T20:45:17.913Z,33.72
2022-11-22T20:47:44.571Z,31.85
2022-11-22T20:50:11.264Z,33.28
2022-11-22T20:52:37.925Z,33.75
2022-11-22T20:55:06.163Z,32.33
2022-11-22T20:57:32.872Z,31.10
2022-11-22T20:59:59.553Z,34.53
2022-11-22T21:02:26.224Z,32.35
2022-11-22T21:04:52.875Z,33.80
2022-11-22T21:07:19.596Z,33.45
2022-11-22T21:09:46.289Z,32.22
2022-11-22T21:12:12.954Z,32.05
2022-11-22T21:14:39.589Z,32.50
2022-11-22T21:17:35.582Z,33.85
2022-11-22T21:19:52.924Z,31.30
2022-11-22T21:22:19.656Z,32.40
2022-11-22T21:24:46.369Z,33.22
2022-11-22T21:27:13.245Z,33.00
2022-11-22T21:29:40.639Z,32.10
2022-11-22T21:32:07.369Z,33.30
2022-11-22T21:34:34.009Z,32.97
2022-11-22T21:37:03.472Z,31.13
2022-11-22T21:39:30.095Z,34.25
2022-11-22T21:41:56.727Z,33.15
2022-11-22T21:44:23.395Z,34.33
2022-11-22T21:46:51.282Z,33.85
2022-11-22T21:49:17.962Z,34.63
2022-11-22T21:51:44.717Z,33.35
2022-11-22T21:54:11.439Z,32.67
2022-11-22T21:56:38.067Z,32.53
2022-11-22T21:59:04.772Z,34.40
2022-11-22T22:01:31.729Z,34.92
2022-11-22T22:03:58.475Z,33.35
2022-11-22T22:06:25.246Z,33.03
2022-11-22T22:08:51.937Z,33.53
2022-11-22T22:11:18.630Z,33.33
2022-11-22T22:13:45.419Z,33.40
2022-11-22T22:16:18.293Z,32.80
2022-11-22T22:18:45.240Z,31.40
2022-11-22T22:21:12.987Z,31.85
2022-11-22T22:23:40.993Z,33.47
2022-11-22T22:26:09.724Z,31.73
2022-11-22T22:28:37.676Z,32.10
2022-11-22T22:31:09.904Z,33.58
2022-11-22T22:33:38.533Z,31.55
2022-11-22T22:36:06.176Z,32.08
2022-11-22T22:38:33.530Z,33.17
2022-11-22T22:41:02.224Z,33.15
2022-11-22T22:43:31.315Z,36.42
2022-11-22T22:46:06.491Z,36.55
2022-11-22T22:48:34.382Z,34.33
2022-11-22T22:51:15.813Z,33.70
2022-11-22T22:53:43.790Z,33.17
2022-11-22T22:56:11.577Z,33.80
2022-11-22T22:58:38.826Z,33.60
2022-11-22T23:01:06.687Z,34.88
2022-11-22T23:03:33.824Z,33.55
2022-11-22T23:06:05.407Z,35.20
2022-11-22T23:08:32.069Z,34.90
2022-11-22T23:11:09.878Z,36.10
2022-11-22T23:13:38.745Z,31.88
2022-11-22T23:16:06.941Z,35.53
2022-11-22T23:18:39.286Z,34.90
2022-11-22T23:21:07.478Z,33.28
2022-11-22T23:23:34.240Z,33.65
2022-11-22T23:26:05.451Z,33.97
2022-11-22T23:28:33.151Z,34.83
2022-11-22T23:31:11.920Z,35.00
2022-11-22T23:33:38.759Z,33.72
2022-11-22T23:36:07.698Z,34.63
2022-11-22T23:38:35.009Z,33.28
2022-11-22T23:41:02.184Z,34.40
2022-11-22T23:43:29.402Z,35.45
2022-11-22T23:45:58.571Z,33.15
2022-11-22T23:48:25.956Z,33.65
2022-11-22T23:50:52.693Z,35.05
2022-11-22T23:53:19.369Z,34.55
2022-11-22T23:55:46.213Z,33.25
2022-11-22T23:58:13.035Z,34.63
